Yalta, Ukraine
Current Conditions -  °F | °C
As of 9:00 PM on Thursday 30 Oct 2014 (Local Time) from URFF Reporting Station
Haze Haze  
Wind Chill: 34°   Ceiling: 400
Heat Index: 43°   Visibility: 2.3mi
Dew Point: 41°   Wind: 20mph
Humidity: 93%   Direction: 70°ENE
Pressure: 30"   Gusts: NA
Location:  45.48°N, 34.17°E
Report Text: URFF 301800Z 07009MPS 3700 BR OVC004 06/05 Q1016 01010065 BECMG0600 FG OVC002
Loading
Personal Weather Stations






























Interactive Weather Map
Tropical Storm Tracking
New forecast layout! Learn more

10-Day Weather Forecast

Advertisements
Track Severe Weather on mobile